Portada
METAR-TAF:

METAR-TAF

Aeroports :

Erwin, Carolina del Nord, Estats Units d'Amèrica

latitud: 35-22-43N, longitud: 078-44-01W, altitud: 60 m

Observació

L'informe es va fer fa 16 minuts, a les 12:35 UTC
Vent calma
Temperatura 8°C
Humitat 100%
Pressió 1011 hPa
Visibilitat: 11.3 km
Cel cobert a una alçada de 1800 ft

METAR: KHRJ 191235Z AUTO 00000KT 7SM OVC018 08/08 A2985 RMK AO2 T00820082

Hora: 07:51 (12:51 UTC)


TAF: manca

Observacions i pronòstics meteorològics de més de 4000 aeroports (METAR i TAF).

Les estacions disponibles són els punts grocs i vermells al mapa.

Posi el ratolí al punt desitjat per veure el nom de l'estació.

Feu clic per veure les observacions i els pronòstics meteorològics.

Per canviar el mapa: feu clic els botons verds amb una creu de color negre per apropar; al botó verd amb un guió per allunyar la imatge; o en les fletxes verdes per a mapes adjacents.


METAR-TAF: